createdAt,value
2017-09-16T00:01:54.965Z,100230.20
2017-09-16T00:04:22.123Z,100236.73
2017-09-16T00:06:49.288Z,100238.04
2017-09-16T00:09:16.807Z,100233.70
2017-09-16T00:11:43.976Z,100240.23
2017-09-16T00:14:11.131Z,100228.07
2017-09-16T00:16:38.287Z,100232.81
2017-09-16T00:19:05.468Z,100229.38
2017-09-16T00:21:32.632Z,100231.09
2017-09-16T00:23:59.792Z,100228.07
2017-09-16T00:26:26.988Z,100225.88
2017-09-16T00:28:54.144Z,100228.07
2017-09-16T00:31:21.301Z,100223.73
2017-09-16T00:33:48.460Z,100221.55
2017-09-16T00:36:15.624Z,100219.82
2017-09-16T00:38:42.785Z,100221.95
2017-09-16T00:41:09.941Z,100208.96
2017-09-16T00:43:37.091Z,100211.09
2017-09-16T00:46:04.247Z,100204.62
2017-09-16T00:48:31.406Z,100206.34
2017-09-16T00:50:58.564Z,100207.17
2017-09-16T00:53:25.724Z,100208.48
2017-09-16T00:55:53.560Z,100208.48
2017-09-16T00:58:20.711Z,100202.44
2017-09-16T01:00:47.863Z,100202.91
2017-09-16T01:03:15.015Z,100201.12
2017-09-16T01:05:42.167Z,100202.44
2017-09-16T01:08:09.320Z,100202.02
2017-09-16T01:10:36.475Z,100202.84
2017-09-16T01:13:03.895Z,100197.20
2017-09-16T01:15:31.821Z,100204.21
2017-09-16T01:17:58.992Z,100200.30
2017-09-16T01:20:26.151Z,100198.57
2017-09-16T01:22:53.418Z,100193.30
2017-09-16T01:25:21.340Z,100196.37
2017-09-16T01:27:48.504Z,100192.87
2017-09-16T01:30:15.656Z,100193.77
2017-09-16T01:32:42.808Z,100189.37
2017-09-16T01:35:09.960Z,100186.35
2017-09-16T01:37:37.144Z,100188.91
2017-09-16T01:40:04.409Z,100188.96
2017-09-16T01:42:31.567Z,100185.52
2017-09-16T01:44:58.723Z,100188.12
2017-09-16T01:47:27.471Z,100188.55
2017-09-16T01:49:54.919Z,100188.12
2017-09-16T01:52:22.449Z,100189.44
2017-09-16T01:54:49.967Z,100186.35
2017-09-16T01:57:17.223Z,100186.35
2017-09-16T01:59:44.560Z,100190.27
2017-09-16T02:02:11.733Z,100192.94
2017-09-16T02:04:38.960Z,100195.48
2017-09-16T02:07:06.148Z,100192.94
2017-09-16T02:09:33.445Z,100198.57
2017-09-16T02:12:00.912Z,100196.44
2017-09-16T02:14:28.078Z,100196.37
2017-09-16T02:16:55.250Z,100191.16
2017-09-16T02:19:22.493Z,100195.96
2017-09-16T02:21:49.883Z,100195.07
2017-09-16T02:24:17.264Z,100190.73
2017-09-16T02:26:44.500Z,100187.23
2017-09-16T02:29:11.833Z,100194.24
2017-09-16T02:31:39.057Z,100192.11
2017-09-16T02:34:06.220Z,100191.22
2017-09-16T02:36:33.375Z,100190.80
2017-09-16T02:39:00.532Z,100192.52
2017-09-16T02:41:27.935Z,100194.71
2017-09-16T02:43:55.097Z,100190.73
2017-09-16T02:46:22.253Z,100190.38
2017-09-16T02:48:49.407Z,100186.47
2017-09-16T02:51:16.674Z,100188.60
2017-09-16T02:53:43.884Z,100187.30
2017-09-16T02:56:11.045Z,100183.37
2017-09-16T02:58:39.044Z,100189.02
2017-09-16T03:01:06.200Z,100186.47
2017-09-16T03:03:33.421Z,100182.97
2017-09-16T03:06:00.801Z,100184.27
2017-09-16T03:08:28.036Z,100183.86
2017-09-16T03:10:55.455Z,100189.49
2017-09-16T03:13:23.379Z,100186.41
2017-09-16T03:15:50.543Z,100189.08
2017-09-16T03:18:17.704Z,100185.16
2017-09-16T03:20:45.008Z,100182.55
2017-09-16T03:23:12.165Z,100180.35
2017-09-16T03:25:39.631Z,100180.35
2017-09-16T03:28:06.992Z,100179.94
2017-09-16T03:30:34.461Z,100181.24
2017-09-16T03:33:02.034Z,100180.83
2017-09-16T03:35:29.228Z,100177.33
2017-09-16T03:37:56.560Z,100179.61
2017-09-16T03:40:23.952Z,100178.63
2017-09-16T03:42:51.411Z,100174.77
2017-09-16T03:45:19.327Z,100180.41
2017-09-16T03:47:46.665Z,100176.08
2017-09-16T03:50:14.004Z,100172.16
2017-09-16T03:52:41.462Z,100179.11
2017-09-16T03:55:08.623Z,100186.47
2017-09-16T03:57:35.865Z,100179.52
2017-09-16T04:00:03.322Z,100177.00
2017-09-16T04:02:30.645Z,100177.00
2017-09-16T04:04:57.801Z,100175.19
2017-09-16T04:07:25.235Z,100173.08
2017-09-16T04:09:52.744Z,100165.25
2017-09-16T04:12:19.907Z,100169.50
2017-09-16T04:14:47.147Z,100167.86
2017-09-16T04:17:14.323Z,100173.08
2017-09-16T04:19:42.056Z,100169.17
2017-09-16T04:22:09.207Z,100172.16
2017-09-16T04:24:36.361Z,100175.28
2017-09-16T04:27:03.714Z,100173.47
2017-09-16T04:29:30.871Z,100170.53
2017-09-16T04:31:58.028Z,100167.86
2017-09-16T04:34:25.373Z,100168.75
2017-09-16T04:36:52.834Z,100173.08
2017-09-16T04:39:20.151Z,100169.17
2017-09-16T04:41:48.250Z,100171.36
2017-09-16T04:44:15.402Z,100173.14
2017-09-16T04:46:42.583Z,100172.67
2017-09-16T04:49:09.732Z,100170.95
2017-09-16T04:51:36.891Z,100169.64
2017-09-16T04:54:04.043Z,100170.95
2017-09-16T04:56:31.516Z,100174.39
2017-09-16T04:58:59.436Z,100168.34
2017-09-16T05:01:26.658Z,100172.25
2017-09-16T05:03:54.583Z,100176.17
2017-09-16T05:06:22.008Z,100172.25
2017-09-16T05:08:49.375Z,100177.89
2017-09-16T05:11:16.727Z,100180.09
2017-09-16T05:13:43.976Z,100180.97
2017-09-16T05:16:11.468Z,100185.31
2017-09-16T05:18:39.185Z,100183.59
2017-09-16T05:21:06.338Z,100184.00
2017-09-16T05:23:33.673Z,100184.48
2017-09-16T05:26:01.192Z,100186.67
2017-09-16T05:28:28.368Z,100188.39
2017-09-16T05:30:58.128Z,100187.09
2017-09-16T05:33:26.007Z,100189.22
2017-09-16T05:35:53.559Z,100190.59
2017-09-16T05:38:21.829Z,100186.73
2017-09-16T05:40:49.352Z,100194.50
2017-09-16T05:43:17.768Z,100186.67
2017-09-16T05:45:47.051Z,100190.59
2017-09-16T05:48:14.508Z,100189.75
2017-09-16T05:50:41.824Z,100187.56
2017-09-16T05:53:08.981Z,100193.20
2017-09-16T05:55:36.135Z,100194.50
2017-09-16T05:58:03.291Z,100193.67
2017-09-16T06:00:30.566Z,100186.31
2017-09-16T06:02:58.102Z,100188.87
2017-09-16T06:05:25.648Z,100190.59
2017-09-16T06:07:52.992Z,100189.75
2017-09-16T06:10:20.394Z,100189.81
2017-09-16T06:12:47.556Z,100190.64
2017-09-16T06:15:14.740Z,100195.87
2017-09-16T06:17:42.150Z,100193.25
2017-09-16T06:20:09.934Z,100199.36
2017-09-16T06:22:37.141Z,100194.97
2017-09-16T06:25:04.496Z,100190.64
2017-09-16T06:27:32.363Z,100197.17
2017-09-16T06:29:59.588Z,100195.39
2017-09-16T06:32:27.201Z,100198.06
2017-09-16T06:34:54.655Z,100199.36
2017-09-16T06:37:21.967Z,100197.17
2017-09-16T06:39:49.672Z,100198.53
2017-09-16T06:42:17.951Z,100199.78
2017-09-16T06:44:45.885Z,100199.36
2017-09-16T06:47:13.260Z,100207.20
2017-09-16T06:49:42.166Z,100202.39
2017-09-16T06:52:09.511Z,100210.23
2017-09-16T06:54:37.080Z,100208.98
2017-09-16T06:57:05.395Z,100211.53
2017-09-16T06:59:32.649Z,100212.00
2017-09-16T07:02:00.372Z,100208.92
2017-09-16T07:04:28.138Z,100212.00
2017-09-16T07:06:55.481Z,100211.59
2017-09-16T07:09:22.780Z,100211.17
2017-09-16T07:11:50.125Z,100212.48
2017-09-16T07:14:17.312Z,100209.45
2017-09-16T07:16:44.509Z,100214.67
2017-09-16T07:19:11.844Z,100215.98
2017-09-16T07:21:39.415Z,100215.50
2017-09-16T07:24:07.111Z,100218.59
2017-09-16T07:26:35.072Z,100219.84
2017-09-16T07:29:02.784Z,100216.81
2017-09-16T07:31:30.113Z,100222.50
2017-09-16T07:33:58.078Z,100222.92
2017-09-16T07:36:25.564Z,100221.20
2017-09-16T07:38:52.823Z,100226.84
2017-09-16T07:41:20.810Z,100231.64
2017-09-16T07:43:48.325Z,100229.86
2017-09-16T07:46:16.645Z,100241.20
2017-09-16T07:48:43.901Z,100233.84
2017-09-16T07:51:12.378Z,100235.62
2017-09-16T07:53:40.460Z,100242.56
2017-09-16T07:56:08.362Z,100240.78
2017-09-16T07:58:36.323Z,100241.25
2017-09-16T08:01:03.490Z,100245.17
2017-09-16T08:03:30.655Z,100247.36
2017-09-16T08:05:58.492Z,100250.80
2017-09-16T08:08:25.712Z,100249.55
2017-09-16T08:10:52.876Z,100254.78
2017-09-16T08:13:20.040Z,100257.39
2017-09-16T08:15:47.196Z,100262.14
2017-09-16T08:18:14.350Z,100259.11
2017-09-16T08:20:41.495Z,100258.22
2017-09-16T08:23:08.647Z,100257.33
2017-09-16T08:25:35.800Z,100260.00
2017-09-16T08:28:02.952Z,100261.31
2017-09-16T08:30:30.104Z,100263.92
2017-09-16T08:32:57.284Z,100260.00
2017-09-16T08:35:25.124Z,100261.72
2017-09-16T08:37:53.369Z,100259.11
2017-09-16T08:40:20.578Z,100260.42
2017-09-16T08:42:47.737Z,100254.36
2017-09-16T08:45:14.891Z,100260.89
2017-09-16T08:47:42.040Z,100263.09
2017-09-16T08:50:09.202Z,100264.39
2017-09-16T08:52:36.456Z,100265.22
2017-09-16T08:55:03.608Z,100264.81
2017-09-16T08:57:30.767Z,100262.61
2017-09-16T08:59:58.212Z,100253.47
2017-09-16T09:02:25.475Z,100252.64
2017-09-16T09:04:52.867Z,100261.36
2017-09-16T09:07:20.359Z,100254.42
2017-09-16T09:09:48.608Z,100253.95
2017-09-16T09:12:15.760Z,100251.75
2017-09-16T09:14:43.121Z,100249.61
2017-09-16T09:17:10.380Z,100251.34
2017-09-16T09:19:37.544Z,100253.06
2017-09-16T09:22:05.070Z,100258.70
2017-09-16T09:24:32.580Z,100260.47
2017-09-16T09:26:59.788Z,100260.06
2017-09-16T09:29:27.169Z,100257.45
2017-09-16T09:31:54.887Z,100259.17
2017-09-16T09:34:22.233Z,100260.47
2017-09-16T09:36:49.400Z,100268.72
2017-09-16T09:39:16.564Z,100266.59
2017-09-16T09:41:44.241Z,100262.25
2017-09-16T09:44:11.580Z,100260.95
2017-09-16T09:46:38.739Z,100268.72
2017-09-16T09:49:06.996Z,100260.06
2017-09-16T09:51:34.321Z,100263.97
2017-09-16T09:54:01.918Z,100262.25
2017-09-16T09:56:29.116Z,100256.56
2017-09-16T09:58:56.373Z,100256.97
2017-09-16T10:01:23.816Z,100259.22
2017-09-16T10:03:50.980Z,100261.84
2017-09-16T10:06:18.439Z,100269.67
2017-09-16T10:08:45.746Z,100267.47
2017-09-16T10:11:12.899Z,100266.11
2017-09-16T10:13:40.047Z,100271.80
2017-09-16T10:16:07.234Z,100272.70
2017-09-16T10:18:34.396Z,100270.97
2017-09-16T10:21:01.579Z,100275.30
2017-09-16T10:23:28.733Z,100266.23
2017-09-16T10:25:55.900Z,100265.34
2017-09-16T10:28:23.818Z,100259.64
2017-09-16T10:30:50.971Z,100259.64
2017-09-16T10:33:18.128Z,100270.97
2017-09-16T10:35:46.093Z,100268.78
2017-09-16T10:38:13.256Z,100263.61
2017-09-16T10:40:40.416Z,100253.59
2017-09-16T10:43:07.584Z,100262.25
2017-09-16T10:45:34.749Z,100264.03
2017-09-16T10:48:02.243Z,100264.86
2017-09-16T10:50:29.585Z,100264.03
2017-09-16T10:52:56.764Z,100262.72
2017-09-16T10:55:23.927Z,100260.95
2017-09-16T10:57:51.864Z,100263.61
2017-09-16T11:00:19.023Z,100264.45
2017-09-16T11:02:46.179Z,100261.84
2017-09-16T11:05:13.332Z,100255.37
2017-09-16T11:07:40.495Z,100262.72
2017-09-16T11:10:07.665Z,100254.95
2017-09-16T11:12:34.820Z,100258.39
2017-09-16T11:15:02.740Z,100257.09
2017-09-16T11:17:29.892Z,100258.39
2017-09-16T11:19:57.052Z,100244.45
2017-09-16T11:22:24.212Z,100248.37
2017-09-16T11:24:51.532Z,100247.95
2017-09-16T11:27:18.696Z,100246.64
2017-09-16T11:29:45.856Z,100251.03
2017-09-16T11:32:13.014Z,100242.78
2017-09-16T11:34:40.167Z,100247.12
2017-09-16T11:37:07.324Z,100242.31
2017-09-16T11:39:34.476Z,100246.23
2017-09-16T11:42:01.628Z,100241.06
2017-09-16T11:44:28.783Z,100235.78
2017-09-16T11:46:55.944Z,100228.84
2017-09-16T11:49:23.095Z,100229.73
2017-09-16T11:51:50.259Z,100231.03
2017-09-16T11:54:17.408Z,100226.70
2017-09-16T11:56:44.564Z,100229.73
2017-09-16T11:59:11.725Z,100232.34
2017-09-16T12:01:38.882Z,100227.53
2017-09-16T12:04:06.211Z,100229.31
2017-09-16T12:06:34.306Z,100234.90
2017-09-16T12:09:01.467Z,100230.63
2017-09-16T12:11:28.624Z,100228.42
2017-09-16T12:13:55.780Z,100223.20
2017-09-16T12:16:22.932Z,100226.23
2017-09-16T12:18:50.092Z,100225.40
2017-09-16T12:21:17.249Z,100224.03
2017-09-16T12:23:44.408Z,100227.53
2017-09-16T12:26:11.560Z,100222.80
2017-09-16T12:28:38.713Z,100218.88
2017-09-16T12:31:05.880Z,100221.01
2017-09-16T12:33:33.032Z,100218.88
2017-09-16T12:36:00.196Z,100220.59
2017-09-16T12:38:27.360Z,100215.84
2017-09-16T12:40:54.515Z,100217.09
2017-09-16T12:43:21.667Z,100214.48
2017-09-16T12:45:48.824Z,100216.32
2017-09-16T12:48:15.980Z,100214.55
2017-09-16T12:50:43.127Z,100217.56
2017-09-16T12:53:10.279Z,100219.29
2017-09-16T12:55:37.453Z,100213.23
2017-09-16T12:58:04.605Z,100212.77
2017-09-16T13:00:31.771Z,100205.82
2017-09-16T13:02:58.925Z,100205.88
2017-09-16T13:05:26.077Z,100206.71
2017-09-16T13:07:53.231Z,100210.69
2017-09-16T13:10:20.389Z,100216.27
2017-09-16T13:12:47.539Z,100211.05
2017-09-16T13:15:14.694Z,100210.63
2017-09-16T13:17:41.852Z,100211.93
2017-09-16T13:20:09.008Z,100217.16
2017-09-16T13:22:36.168Z,100214.55
2017-09-16T13:25:03.332Z,100209.32
2017-09-16T13:27:30.483Z,100206.30
2017-09-16T13:29:57.691Z,100208.02
2017-09-16T13:32:25.615Z,100204.94
2017-09-16T13:34:52.793Z,100206.71
2017-09-16T13:37:20.059Z,100205.82
2017-09-16T13:39:47.982Z,100200.19
2017-09-16T13:42:15.284Z,100198.46
2017-09-16T13:44:42.443Z,100192.83
2017-09-16T13:47:09.596Z,100194.07
2017-09-16T13:49:36.750Z,100199.30
2017-09-16T13:52:03.915Z,100192.83
2017-09-16T13:54:31.068Z,100197.63
2017-09-16T13:56:58.219Z,100184.58
2017-09-16T13:59:25.380Z,100189.33
2017-09-16T14:01:52.533Z,100190.63
2017-09-16T14:04:19.689Z,100183.69
2017-09-16T14:06:46.849Z,100186.30
2017-09-16T14:09:14.012Z,100180.25
2017-09-16T14:11:41.187Z,100175.03
2017-09-16T14:14:08.340Z,100177.64
2017-09-16T14:16:35.501Z,100175.86
2017-09-16T14:19:02.660Z,100171.11
2017-09-16T14:21:29.993Z,100178.05
2017-09-16T14:23:57.225Z,100173.72
2017-09-16T14:26:24.383Z,100180.75
2017-09-16T14:28:51.535Z,100181.55
2017-09-16T14:31:19.275Z,100178.61
2017-09-16T14:33:46.445Z,100184.25
2017-09-16T14:36:13.608Z,100181.70
2017-09-16T14:38:40.803Z,100182.53
2017-09-16T14:41:08.112Z,100184.37
2017-09-16T14:43:36.036Z,100187.81
2017-09-16T14:46:03.195Z,100189.53
2017-09-16T14:48:30.351Z,100185.61
2017-09-16T14:50:57.511Z,100185.20
2017-09-16T14:53:24.702Z,100179.15
2017-09-16T14:55:51.860Z,100187.03
2017-09-16T14:58:19.024Z,100181.81
2017-09-16T15:00:46.178Z,100187.03
2017-09-16T15:03:13.337Z,100180.09
2017-09-16T15:05:40.496Z,100187.03
2017-09-16T15:08:07.663Z,100189.64
2017-09-16T15:10:34.845Z,100187.03
2017-09-16T15:13:02.003Z,100188.81
2017-09-16T15:15:29.696Z,100191.01
2017-09-16T15:17:56.864Z,100181.45
2017-09-16T15:20:24.372Z,100184.06
2017-09-16T15:22:51.775Z,100189.28
2017-09-16T15:25:18.980Z,100187.98
2017-09-16T15:27:46.438Z,100184.95
2017-09-16T15:30:13.623Z,100185.38
2017-09-16T15:32:41.151Z,100182.81
2017-09-16T15:35:08.308Z,100182.81
2017-09-16T15:37:36.916Z,100191.53
2017-09-16T15:40:04.286Z,100183.77
2017-09-16T15:42:31.447Z,100185.54
2017-09-16T15:44:58.604Z,100192.42
2017-09-16T15:47:26.533Z,100192.90
2017-09-16T15:49:53.700Z,100194.68
2017-09-16T15:52:20.864Z,100196.40
2017-09-16T15:54:48.036Z,100194.27
2017-09-16T15:57:15.200Z,100192.48
2017-09-16T15:59:42.930Z,100198.18
2017-09-16T16:02:10.340Z,100196.87
2017-09-16T16:04:37.501Z,100204.28
2017-09-16T16:07:04.660Z,100210.39
2017-09-16T16:09:31.815Z,100214.31
2017-09-16T16:11:58.967Z,100219.95
2017-09-16T16:14:26.128Z,100218.17
2017-09-16T16:16:53.480Z,100218.17
2017-09-16T16:19:20.664Z,100222.98
2017-09-16T16:21:47.816Z,100221.61
2017-09-16T16:24:14.988Z,100222.50
2017-09-16T16:26:42.144Z,100222.09
2017-09-16T16:29:09.300Z,100222.98
2017-09-16T16:31:36.620Z,100223.39
2017-09-16T16:34:04.072Z,100224.75
2017-09-16T16:36:31.992Z,100219.53
2017-09-16T16:38:59.314Z,100225.17
2017-09-16T16:41:26.679Z,100232.58
2017-09-16T16:43:54.236Z,100234.30
2017-09-16T16:46:21.392Z,100238.69
2017-09-16T16:48:48.559Z,100241.72
2017-09-16T16:51:16.200Z,100242.19
2017-09-16T16:53:43.369Z,100245.63
2017-09-16T16:56:10.533Z,100253.47
2017-09-16T16:58:38.189Z,100250.02
2017-09-16T17:01:05.368Z,100249.13
2017-09-16T17:03:32.524Z,100253.94
2017-09-16T17:05:59.688Z,100252.22
2017-09-16T17:08:26.848Z,100255.72
2017-09-16T17:10:54.004Z,100249.61
2017-09-16T17:13:21.159Z,100250.91
2017-09-16T17:15:48.312Z,100255.30
2017-09-16T17:18:15.472Z,100268.30
2017-09-16T17:20:42.624Z,100269.60
2017-09-16T17:23:09.787Z,100270.91
2017-09-16T17:25:36.941Z,100282.23
2017-09-16T17:28:04.168Z,100289.59
2017-09-16T17:30:31.320Z,100286.98
2017-09-16T17:32:58.488Z,100294.45
2017-09-16T17:35:26.061Z,100295.34
2017-09-16T17:37:53.422Z,100300.50
2017-09-16T17:40:20.579Z,100303.59
2017-09-16T17:42:47.737Z,100307.98
2017-09-16T17:45:14.891Z,100312.40
2017-09-16T17:47:43.176Z,100312.73
2017-09-16T17:50:11.101Z,100307.98
2017-09-16T17:52:38.260Z,100308.39
2017-09-16T17:55:05.413Z,100307.17
2017-09-16T17:57:32.591Z,100304.15
2017-09-16T17:59:59.743Z,100306.76
2017-09-16T18:02:26.900Z,100306.28
2017-09-16T18:04:54.056Z,100310.67
2017-09-16T18:07:21.216Z,100307.23
2017-09-16T18:09:48.373Z,100305.09
2017-09-16T18:12:15.528Z,100304.63
2017-09-16T18:14:42.716Z,100312.45
2017-09-16T18:17:09.884Z,100311.56
2017-09-16T18:19:37.816Z,100312.51
2017-09-16T18:22:04.976Z,100325.09
2017-09-16T18:24:32.290Z,100326.80
2017-09-16T18:26:59.740Z,100335.11
2017-09-16T18:29:27.511Z,100330.36
2017-09-16T18:31:54.720Z,100334.64
2017-09-16T18:34:22.761Z,100337.72
2017-09-16T18:36:49.930Z,100332.50
2017-09-16T18:39:17.088Z,100336.36
2017-09-16T18:41:44.615Z,100336.36
2017-09-16T18:44:11.800Z,100334.64
2017-09-16T18:46:39.411Z,100335.47
2017-09-16T18:49:06.600Z,100334.58
2017-09-16T18:51:33.760Z,100342.00
2017-09-16T18:54:00.936Z,100342.89
2017-09-16T18:56:28.444Z,100348.94
2017-09-16T18:58:55.625Z,100349.41
2017-09-16T19:01:23.225Z,100352.86
2017-09-16T19:03:50.397Z,100347.63
2017-09-16T19:06:17.557Z,100355.88
2017-09-16T19:08:45.057Z,100357.19
2017-09-16T19:11:12.479Z,100356.77
2017-09-16T19:13:39.992Z,100358.49
2017-09-16T19:16:07.558Z,100358.49
2017-09-16T19:18:35.425Z,100358.08
2017-09-16T19:21:02.632Z,100361.58
2017-09-16T19:23:29.819Z,100362.80
2017-09-16T19:25:57.328Z,100366.80
2017-09-16T19:28:25.194Z,100365.02
2017-09-16T19:30:52.385Z,100371.93
2017-09-16T19:33:19.540Z,100360.13
2017-09-16T19:35:47.224Z,100367.54
2017-09-16T19:38:14.972Z,100359.80
2017-09-16T19:40:42.579Z,100365.34
2017-09-16T19:43:09.845Z,100365.71
2017-09-16T19:45:37.146Z,100370.82
2017-09-16T19:48:05.268Z,100374.32
2017-09-16T19:50:32.981Z,100376.52
2017-09-16T19:53:00.489Z,100373.48
2017-09-16T19:55:27.692Z,100379.18
2017-09-16T19:57:55.352Z,100384.81
2017-09-16T20:00:23.117Z,100385.28
2017-09-16T20:02:50.868Z,100390.51
2017-09-16T20:05:18.646Z,100389.67
2017-09-16T20:07:45.828Z,100386.23
2017-09-16T20:10:13.252Z,100390.14
2017-09-16T20:12:40.881Z,100384.09
2017-09-16T20:15:08.673Z,100392.28
2017-09-16T20:17:35.885Z,100387.06
2017-09-16T20:20:03.046Z,100383.15
2017-09-16T20:22:31.498Z,100386.65
2017-09-16T20:24:58.993Z,100387.95
2017-09-16T20:27:26.176Z,100391.87
2017-09-16T20:29:53.627Z,100392.76
2017-09-16T20:32:20.812Z,100393.59
2017-09-16T20:34:47.968Z,100394.84
2017-09-16T20:37:15.895Z,100394.01
2017-09-16T20:39:43.222Z,100395.78
2017-09-16T20:42:10.810Z,100396.20
2017-09-16T20:44:38.781Z,100396.20
2017-09-16T20:47:06.362Z,100401.42
2017-09-16T20:49:34.104Z,100401.84
2017-09-16T20:52:01.382Z,100400.53
2017-09-16T20:54:28.697Z,100398.39
2017-09-16T20:56:56.369Z,100402.78
2017-09-16T20:59:23.984Z,100408.42
2017-09-16T21:01:51.153Z,100408.00
2017-09-16T21:04:18.309Z,100407.95
2017-09-16T21:06:45.812Z,100410.98
2017-09-16T21:09:12.988Z,100411.86
2017-09-16T21:11:40.148Z,100415.78
2017-09-16T21:14:07.437Z,100414.00
2017-09-16T21:16:34.883Z,100419.70
2017-09-16T21:19:02.808Z,100419.28
2017-09-16T21:21:29.973Z,100420.11
2017-09-16T21:23:57.132Z,100417.08
2017-09-16T21:26:24.420Z,100420.58
2017-09-16T21:28:51.588Z,100420.58
2017-09-16T21:31:18.751Z,100419.28
2017-09-16T21:33:45.920Z,100423.19
2017-09-16T21:36:13.072Z,100425.80
2017-09-16T21:38:40.260Z,100426.69
2017-09-16T21:41:07.427Z,100431.91
2017-09-16T21:43:35.496Z,100428.41
2017-09-16T21:46:02.676Z,100432.33
2017-09-16T21:48:29.840Z,100425.86
2017-09-16T21:50:56.999Z,100426.27
2017-09-16T21:53:24.155Z,100423.25
2017-09-16T21:55:51.316Z,100421.14
2017-09-16T21:58:18.477Z,100426.69
2017-09-16T22:00:46.621Z,100423.66
2017-09-16T22:03:13.820Z,100421.47
2017-09-16T22:05:40.984Z,100427.11
2017-09-16T22:08:08.420Z,100421.94
2017-09-16T22:10:35.580Z,100429.36
2017-09-16T22:13:02.740Z,100428.88
2017-09-16T22:15:29.900Z,100422.36
2017-09-16T22:17:57.057Z,100427.16
2017-09-16T22:20:24.208Z,100430.66
2017-09-16T22:22:51.365Z,100432.80
2017-09-16T22:25:18.527Z,100427.66
2017-09-16T22:27:45.681Z,100431.91
2017-09-16T22:30:12.840Z,100432.89
2017-09-16T22:32:39.999Z,100428.47
2017-09-16T22:35:07.146Z,100426.69
2017-09-16T22:37:34.300Z,100429.77
2017-09-16T22:40:01.475Z,100429.36
2017-09-16T22:42:28.628Z,100429.77
2017-09-16T22:44:55.781Z,100429.36
2017-09-16T22:47:22.940Z,100430.61
2017-09-16T22:49:50.092Z,100433.22
2017-09-16T22:52:17.244Z,100431.02
2017-09-16T22:54:44.395Z,100434.52
2017-09-16T22:57:11.559Z,100432.80
2017-09-16T22:59:38.707Z,100434.10
2017-09-16T23:02:05.868Z,100435.83
2017-09-16T23:04:33.020Z,100435.41
2017-09-16T23:07:00.316Z,100437.13
2017-09-16T23:09:28.243Z,100441.94
2017-09-16T23:11:55.399Z,100437.60
2017-09-16T23:14:22.552Z,100439.33
2017-09-16T23:16:49.712Z,100439.33
2017-09-16T23:19:16.868Z,100436.72
2017-09-16T23:21:44.024Z,100444.08
2017-09-16T23:24:11.192Z,100441.05
2017-09-16T23:26:38.343Z,100446.27
2017-09-16T23:29:05.500Z,100440.16
2017-09-16T23:31:32.655Z,100438.44
2017-09-16T23:33:59.825Z,100444.55
2017-09-16T23:36:26.975Z,100441.47
2017-09-16T23:38:54.128Z,100442.83
2017-09-16T23:41:21.279Z,100441.47
2017-09-16T23:43:48.432Z,100436.30
2017-09-16T23:46:15.583Z,100438.44
2017-09-16T23:48:42.735Z,100436.30
2017-09-16T23:51:09.895Z,100434.58
2017-09-16T23:53:37.052Z,100431.08
2017-09-16T23:56:04.204Z,100431.97
2017-09-16T23:58:31.366Z,100427.66
